Time;durP1;ratioP1;P1;durP2;ratioP2;P2;SDS_P1;SDS_P2;PMS_P1;PMS_P2;Temp;Humidity;BMP_temperature;BMP_pressure;BME280_temperature;BME280_humidity;BME280_pressure;Samples;Min_cycle;Max_cycle;Signal;HPM_P1;HPM_P2
2021/12/29 00:00:43;;;;;;;6.45;3.80;;;18.50;46.60;;;;;;4949709;29;20288;-86
2021/12/29 00:03:12;;;;;;;6.30;3.70;;;18.50;46.30;;;;;;4967986;28;20185;-82
2021/12/29 00:05:40;;;;;;;7.82;3.72;;;18.50;46.30;;;;;;4948577;29;20189;-84
2021/12/29 00:08:29;;;;;;;6.95;3.85;;;18.50;46.50;;;;;;4949454;29;20185;-83
2021/12/29 00:11:01;;;;;;;5.68;3.80;;;18.50;46.50;;;;;;4966874;28;20730;-83
2021/12/29 00:13:30;;;;;;;5.30;3.42;;;18.50;46.30;;;;;;4974515;28;20690;-83
2021/12/29 00:16:00;;;;;;;6.78;3.53;;;18.50;46.50;;;;;;4984016;28;20185;-83
2021/12/29 00:18:33;;;;;;;5.53;3.50;;;18.50;46.30;;;;;;4982955;28;20264;-84
2021/12/29 00:21:11;;;;;;;5.57;3.72;;;18.50;46.40;;;;;;5000970;28;20183;-82
2021/12/29 00:23:41;;;;;;;6.18;3.85;;;18.50;46.40;;;;;;4964971;29;20188;-82
2021/12/29 00:26:07;;;;;;;5.90;3.95;;;18.50;46.40;;;;;;4965332;29;20185;-83
2021/12/29 00:28:35;;;;;;;8.20;3.75;;;18.50;46.20;;;;;;4964774;29;20216;-83
2021/12/29 00:31:05;;;;;;;4.60;3.45;;;18.50;46.60;;;;;;4960677;29;20283;-84
2021/12/29 00:33:40;;;;;;;5.22;3.63;;;18.50;46.30;;;;;;4946921;28;20193;-84
2021/12/29 00:36:07;;;;;;;6.53;3.47;;;18.50;46.30;;;;;;5003406;28;20199;-84
2021/12/29 00:38:33;;;;;;;7.38;4.22;;;18.50;46.70;;;;;;5003382;28;20190;-83
2021/12/29 00:41:02;;;;;;;6.15;3.78;;;18.40;46.40;;;;;;5003664;28;20211;-82
2021/12/29 00:44:16;;;;;;;8.82;3.72;;;18.40;46.60;;;;;;4961908;28;20200;-84
2021/12/29 00:46:23;;;;;;;8.27;4.05;;;18.40;46.60;;;;;;4981860;28;20646;-84
2021/12/29 00:49:00;;;;;;;6.82;3.85;;;18.40;46.50;;;;;;5038142;28;20234;-84
2021/12/29 00:51:26;;;;;;;7.45;3.80;;;18.40;46.60;;;;;;5043182;28;20214;-84
2021/12/29 00:53:54;;;;;;;6.13;3.97;;;18.40;46.40;;;;;;5047766;28;20205;-83
2021/12/29 00:56:22;;;;;;;5.93;3.40;;;18.40;46.50;;;;;;5062465;28;20178;-84
2021/12/29 00:58:56;;;;;;;6.88;3.70;;;18.50;46.60;;;;;;5039007;28;20183;-83
2021/12/29 01:01:49;;;;;;;6.65;3.75;;;18.40;46.50;;;;;;5040587;28;20179;-84
2021/12/29 01:04:15;;;;;;;6.57;3.53;;;18.40;46.40;;;;;;5005398;28;20271;-84
2021/12/29 01:06:43;;;;;;;6.03;3.70;;;18.40;46.40;;;;;;5023096;28;20168;-84
2021/12/29 01:09:08;;;;;;;6.55;3.75;;;18.40;46.60;;;;;;5069697;28;20203;-84
2021/12/29 01:11:44;;;;;;;6.10;3.70;;;18.40;46.60;;;;;;5083039;28;20675;-83
2021/12/29 01:14:22;;;;;;;7.13;3.90;;;18.40;46.70;;;;;;5082635;28;20169;-84
2021/12/29 01:16:59;;;;;;;7.47;4.10;;;18.30;46.60;;;;;;5081525;28;20211;-84
2021/12/29 01:19:34;;;;;;;5.72;3.58;;;18.40;46.70;;;;;;5082949;28;20176;-84
2021/12/29 01:22:10;;;;;;;7.15;3.95;;;18.30;46.70;;;;;;5066448;28;20766;-84
2021/12/29 01:24:39;;;;;;;7.57;3.75;;;18.30;46.70;;;;;;5002358;28;20180;-83
2021/12/29 01:27:12;;;;;;;7.63;3.88;;;18.40;46.60;;;;;;4990169;28;20179;-84
2021/12/29 01:29:41;;;;;;;5.72;3.55;;;18.30;46.70;;;;;;4999744;28;20189;-84
2021/12/29 01:32:33;;;;;;;6.25;3.72;;;18.30;46.70;;;;;;5047526;28;20592;-84
2021/12/29 01:34:59;;;;;;;7.35;3.75;;;18.30;46.70;;;;;;5043617;28;20189;-84
2021/12/29 01:37:30;;;;;;;5.70;4.00;;;18.30;46.60;;;;;;5046214;28;20179;-84
2021/12/29 01:39:56;;;;;;;5.70;3.50;;;18.40;46.60;;;;;;5046625;28;20183;-84
2021/12/29 01:42:24;;;;;;;5.88;3.67;;;18.30;46.70;;;;;;5030784;28;20244;-84
2021/12/29 01:45:11;;;;;;;6.57;3.53;;;18.30;46.80;;;;;;5030087;28;20183;-84
2021/12/29 01:47:39;;;;;;;5.35;3.45;;;18.30;46.90;;;;;;5030223;28;20175;-83
2021/12/29 01:50:10;;;;;;;5.18;3.33;;;18.30;46.70;;;;;;5046276;28;20186;-84
2021/12/29 01:52:39;;;;;;;7.03;3.83;;;18.30;46.80;;;;;;5046002;28;20182;-84
2021/12/29 01:55:12;;;;;;;5.80;3.60;;;18.30;46.80;;;;;;5057427;28;20204;-84
2021/12/29 01:57:56;;;;;;;6.55;3.90;;;18.30;46.80;;;;;;5074050;28;20240;-84
2021/12/29 02:00:25;;;;;;;7.78;3.92;;;18.30;46.70;;;;;;5086086;28;20181;-84
2021/12/29 02:02:51;;;;;;;5.68;3.70;;;18.30;46.70;;;;;;5086940;28;20671;-84
2021/12/29 02:05:17;;;;;;;7.72;3.83;;;18.30;46.80;;;;;;5069611;28;20185;-84
2021/12/29 02:07:49;;;;;;;5.63;3.78;;;18.30;46.70;;;;;;5086777;28;20237;-83
2021/12/29 02:10:15;;;;;;;7.28;3.58;;;18.30;46.70;;;;;;5068746;28;20225;-84
2021/12/29 02:13:12;;;;;;;5.78;3.55;;;18.20;46.80;;;;;;5069341;28;20183;-84
2021/12/29 02:15:58;;;;;;;5.25;3.78;;;18.20;46.80;;;;;;5065631;28;20281;-83
2021/12/29 02:18:31;;;;;;;7.40;3.78;;;18.20;46.90;;;;;;5026087;28;20702;-84
2021/12/29 02:20:56;;;;;;;7.45;4.13;;;18.20;46.80;;;;;;5025241;28;20191;-84
2021/12/29 02:23:44;;;;;;;4.97;3.72;;;18.20;46.80;;;;;;5008508;28;20236;-84
2021/12/29 02:26:10;;;;;;;10.13;4.00;;;18.30;46.90;;;;;;4991507;28;20184;-84
2021/12/29 02:28:42;;;;;;;5.93;3.85;;;18.20;46.70;;;;;;4989153;28;20184;-84
2021/12/29 02:31:11;;;;;;;7.63;3.70;;;18.20;46.80;;;;;;5009240;28;20215;-84
2021/12/29 02:33:45;;;;;;;6.65;3.80;;;18.20;46.90;;;;;;5025786;28;20176;-84
2021/12/29 02:36:11;;;;;;;6.55;4.00;;;18.10;46.90;;;;;;5025926;28;20166;-84
2021/12/29 02:38:45;;;;;;;7.22;4.28;;;18.20;47.00;;;;;;5009838;28;20179;-84
2021/12/29 02:41:10;;;;;;;6.70;4.00;;;18.20;47.00;;;;;;5009441;28;20680;-84
2021/12/29 02:43:45;;;;;;;5.93;3.90;;;18.20;47.00;;;;;;5024964;28;20187;-84
2021/12/29 02:46:21;;;;;;;6.03;3.80;;;18.20;47.00;;;;;;4985743;28;20180;-84
2021/12/29 02:48:59;;;;;;;6.90;4.10;;;18.10;47.00;;;;;;5013882;28;20389;-84
2021/12/29 02:51:26;;;;;;;6.53;3.85;;;18.10;47.00;;;;;;4986125;28;20212;-84
2021/12/29 02:53:55;;;;;;;5.60;3.85;;;18.10;46.90;;;;;;4985811;28;20695;-84
2021/12/29 02:56:26;;;;;;;6.22;3.58;;;18.10;47.10;;;;;;4969680;28;20687;-84
2021/12/29 02:58:55;;;;;;;6.97;4.40;;;18.10;46.80;;;;;;4962724;28;20620;-84
2021/12/29 03:01:24;;;;;;;5.75;3.88;;;18.20;46.90;;;;;;4962691;29;20214;-84
2021/12/29 03:03:50;;;;;;;6.85;4.03;;;18.10;46.80;;;;;;4943557;29;20664;-84
2021/12/29 03:06:17;;;;;;;7.97;4.53;;;18.20;46.80;;;;;;4930920;29;20225;-84
2021/12/29 03:08:45;;;;;;;6.07;3.65;;;18.20;47.00;;;;;;4930874;29;20221;-84
2021/12/29 03:11:14;;;;;;;4.85;3.80;;;18.10;47.00;;;;;;4911804;29;20222;-84
2021/12/29 03:13:50;;;;;;;7.55;4.07;;;18.10;46.80;;;;;;4928196;29;20183;-84
2021/12/29 03:16:21;;;;;;;6.03;4.00;;;18.10;46.90;;;;;;4915838;29;20185;-84
2021/12/29 03:18:48;;;;;;;7.00;4.07;;;18.10;47.10;;;;;;4914802;29;20680;-85
2021/12/29 03:21:20;;;;;;;5.32;3.45;;;18.10;47.10;;;;;;4931514;29;20598;-84
2021/12/29 03:23:49;;;;;;;6.05;3.65;;;18.10;47.10;;;;;;4931786;29;20209;-84
2021/12/29 03:26:18;;;;;;;7.05;4.22;;;18.10;47.00;;;;;;4949733;29;20193;-84
2021/12/29 03:28:57;;;;;;;5.57;3.90;;;18.10;47.10;;;;;;4950899;28;20205;-83
2021/12/29 03:31:33;;;;;;;7.00;3.78;;;18.10;47.00;;;;;;4985864;28;20227;-84
2021/12/29 03:34:02;;;;;;;6.57;3.83;;;18.00;47.00;;;;;;5004056;28;20658;-84
2021/12/29 03:36:38;;;;;;;7.45;4.07;;;18.10;46.90;;;;;;5003848;28;20206;-84
2021/12/29 03:39:05;;;;;;;7.85;4.20;;;18.10;47.00;;;;;;5003527;28;20251;-84
2021/12/29 03:41:53;;;;;;;6.05;3.75;;;18.10;46.90;;;;;;5003813;28;20179;-84
2021/12/29 03:44:17;;;;;;;7.63;3.85;;;18.00;46.90;;;;;;5030224;28;20228;-84
2021/12/29 03:46:58;;;;;;;6.60;4.00;;;18.00;47.00;;;;;;5043743;28;20607;-85
2021/12/29 03:49:29;;;;;;;7.45;3.95;;;18.00;47.00;;;;;;5039926;28;20228;-84
2021/12/29 03:51:58;;;;;;;8.30;4.00;;;18.00;47.00;;;;;;5079800;28;20190;-84
2021/12/29 03:54:34;;;;;;;6.18;4.10;;;18.00;47.10;;;;;;5063295;28;20193;-84
2021/12/29 03:57:05;;;;;;;7.72;4.20;;;18.00;47.10;;;;;;5062695;28;20182;-83
2021/12/29 03:59:37;;;;;;;8.85;3.80;;;18.00;47.10;;;;;;5047140;28;20185;-84
2021/12/29 04:02:03;;;;;;;7.75;4.05;;;18.00;47.10;;;;;;5063063;28;20174;-84
2021/12/29 04:04:37;;;;;;;6.85;4.10;;;18.00;47.20;;;;;;5063465;28;20304;-84
2021/12/29 04:07:03;;;;;;;6.07;4.10;;;18.00;47.00;;;;;;5042526;28;20276;-84
2021/12/29 04:09:28;;;;;;;7.65;4.03;;;18.00;47.10;;;;;;5026202;28;20186;-84
2021/12/29 04:12:07;;;;;;;5.93;4.32;;;18.00;47.00;;;;;;5043110;28;20206;-84
2021/12/29 04:14:39;;;;;;;6.28;3.85;;;18.00;47.10;;;;;;5072599;28;20221;-84
2021/12/29 04:17:12;;;;;;;5.70;3.83;;;18.00;47.20;;;;;;5065763;28;20231;-84
2021/12/29 04:22:39;;;;;;;7.88;3.85;;;18.00;46.40;;;;;;5068949;28;20177;-84
2021/12/29 04:25:11;;;;;;;7.28;4.30;;;18.20;46.40;;;;;;5067427;28;20164;-84
2021/12/29 04:27:39;;;;;;;8.43;4.18;;;18.10;46.10;;;;;;5047990;28;20188;-84
2021/12/29 04:30:11;;;;;;;6.18;4.28;;;18.20;46.20;;;;;;5021905;28;20251;-84
2021/12/29 04:32:37;;;;;;;6.88;4.38;;;18.20;46.30;;;;;;5022728;28;20367;-84
2021/12/29 04:35:06;;;;;;;7.68;4.22;;;18.20;46.20;;;;;;5006516;28;20203;-84
2021/12/29 04:37:34;;;;;;;5.78;4.07;;;18.30;46.00;;;;;;5014827;28;20261;-84
2021/12/29 04:40:00;;;;;;;7.28;4.47;;;18.30;45.90;;;;;;5027254;28;20240;-84
2021/12/29 04:42:25;;;;;;;5.00;3.88;;;18.30;45.80;;;;;;5061954;28;20320;-83
2021/12/29 04:45:11;;;;;;;;;;;;;;;;;;;;;
2021/12/29 04:47:41;;;;;;;5.95;4.10;;;18.40;45.80;;;;;;4998488;28;20271;-84
2021/12/29 04:50:24;;;;;;;6.97;4.32;;;18.40;45.70;;;;;;5017761;28;20235;-84
2021/12/29 04:52:50;;;;;;;6.10;4.45;;;18.40;45.60;;;;;;4985498;28;20259;-84
2021/12/29 04:55:16;;;;;;;5.50;4.05;;;18.50;45.70;;;;;;5018660;28;20654;-84
2021/12/29 04:57:48;;;;;;;6.13;4.10;;;18.50;45.80;;;;;;5018688;28;20256;-86
2021/12/29 05:01:07;;;;;;;8.23;4.38;;;18.50;45.60;;;;;;5025635;28;20182;-83
2021/12/29 05:03:09;;;;;;;6.10;3.97;;;18.50;45.60;;;;;;5044347;28;20183;-84
2021/12/29 05:05:51;;;;;;;6.65;4.18;;;18.50;46.10;;;;;;5055621;28;20654;-85
2021/12/29 05:08:26;;;;;;;6.20;4.15;;;18.50;45.50;;;;;;5065054;28;20264;-84
2021/12/29 05:11:00;;;;;;;5.85;3.97;;;18.50;45.30;;;;;;5065649;28;20560;-84
2021/12/29 05:13:35;;;;;;;7.80;4.20;;;18.60;45.40;;;;;;5024642;28;20183;-84
2021/12/29 05:16:01;;;;;;;5.60;4.07;;;18.60;45.30;;;;;;5021345;28;20183;-84
2021/12/29 05:18:31;;;;;;;6.57;4.00;;;18.50;45.30;;;;;;5006589;28;20748;-84
2021/12/29 05:21:03;;;;;;;5.85;4.00;;;18.60;45.40;;;;;;4986332;28;20207;-84
2021/12/29 05:23:38;;;;;;;7.15;4.25;;;18.60;45.20;;;;;;5001607;28;20337;-84
2021/12/29 05:26:13;;;;;;;6.20;4.18;;;18.70;45.20;;;;;;5002755;28;20180;-84
2021/12/29 05:28:41;;;;;;;6.05;4.05;;;18.60;44.90;;;;;;5003157;28;20259;-84
2021/12/29 05:31:10;;;;;;;5.35;3.85;;;18.60;45.10;;;;;;4984781;28;20274;-84
2021/12/29 05:33:36;;;;;;;5.32;4.20;;;18.70;45.00;;;;;;5004009;28;20190;-84
2021/12/29 05:36:05;;;;;;;6.47;4.03;;;18.70;45.00;;;;;;5003257;28;20287;-84
2021/12/29 05:38:42;;;;;;;6.30;4.10;;;18.70;44.90;;;;;;4946225;29;20189;-84
2021/12/29 05:41:09;;;;;;;8.43;4.50;;;18.70;44.80;;;;;;4954418;29;20206;-84
2021/12/29 05:43:41;;;;;;;5.55;3.90;;;18.70;44.80;;;;;;4914962;29;20189;-84
2021/12/29 05:46:22;;;;;;;6.78;4.03;;;18.70;44.80;;;;;;4933139;28;20209;-85
2021/12/29 05:48:50;;;;;;;5.40;3.78;;;18.70;44.80;;;;;;4961581;28;20220;-83
2021/12/29 05:51:22;;;;;;;7.20;4.07;;;18.70;44.80;;;;;;4961455;29;20220;-83
2021/12/29 05:53:48;;;;;;;5.95;4.20;;;18.80;44.80;;;;;;4925180;29;20195;-82
2021/12/29 05:56:20;;;;;;;6.10;4.22;;;18.80;44.80;;;;;;4926033;29;20673;-83
2021/12/29 05:58:50;;;;;;;5.55;3.92;;;18.70;44.80;;;;;;4926550;29;20186;-83
2021/12/29 06:01:19;;;;;;;6.90;4.50;;;18.80;44.80;;;;;;4899610;29;20195;-83
2021/12/29 06:03:44;;;;;;;5.38;3.80;;;18.70;44.80;;;;;;4891628;29;20222;-82
2021/12/29 06:06:13;;;;;;;6.10;4.25;;;18.70;44.80;;;;;;4938041;29;20203;-83
2021/12/29 06:08:40;;;;;;;6.68;4.07;;;18.70;44.80;;;;;;4938165;29;20541;-83
2021/12/29 06:11:10;;;;;;;6.43;4.40;;;18.80;44.70;;;;;;4938469;29;20206;-82
2021/12/29 06:13:42;;;;;;;5.75;4.00;;;18.80;44.80;;;;;;4933743;29;20273;-84
2021/12/29 06:16:10;;;;;;;7.70;4.63;;;18.70;44.60;;;;;;4916587;29;20527;-85
2021/12/29 06:18:37;;;;;;;6.38;4.32;;;18.80;44.50;;;;;;4927588;29;20178;-84
2021/12/29 06:21:16;;;;;;;5.88;4.57;;;18.90;44.60;;;;;;4979362;28;20193;-84
2021/12/29 06:23:49;;;;;;;5.78;4.32;;;18.80;44.60;;;;;;4982477;28;20193;-85
2021/12/29 06:26:25;;;;;;;6.80;4.30;;;18.80;44.50;;;;;;5005635;28;20189;-84
2021/12/29 06:29:34;;;;;;;6.45;4.35;;;18.80;44.60;;;;;;5026711;28;20170;-85
2021/12/29 06:31:44;;;;;;;6.13;4.50;;;18.80;44.60;;;;;;5069120;27;20209;-85
2021/12/29 06:34:26;;;;;;;5.65;4.07;;;18.80;44.60;;;;;;5101548;28;20173;-85
2021/12/29 06:36:54;;;;;;;5.65;4.20;;;18.80;44.40;;;;;;5062143;28;20177;-84
2021/12/29 06:39:27;;;;;;;5.45;3.90;;;18.80;44.30;;;;;;5005491;28;20186;-85
2021/12/29 06:41:54;;;;;;;6.07;4.30;;;18.90;44.40;;;;;;4985513;28;20195;-85
2021/12/29 06:44:23;;;;;;;7.50;4.53;;;18.90;44.40;;;;;;4986853;28;20227;-85
2021/12/29 06:46:52;;;;;;;5.47;4.05;;;18.90;44.30;;;;;;4987034;28;20180;-84
2021/12/29 06:49:26;;;;;;;6.28;4.15;;;18.90;44.40;;;;;;4974644;28;20224;-85
2021/12/29 06:52:18;;;;;;;6.25;4.18;;;18.90;44.50;;;;;;4982697;28;20214;-84
2021/12/29 06:54:48;;;;;;;5.82;4.28;;;18.90;44.40;;;;;;4982042;28;20623;-85
2021/12/29 06:57:26;;;;;;;5.75;4.07;;;18.90;44.40;;;;;;4983498;28;20349;-84
2021/12/29 07:00:06;;;;;;;6.88;4.45;;;18.90;44.20;;;;;;4982080;28;20176;-85
2021/12/29 07:02:37;;;;;;;8.30;4.57;;;18.90;44.20;;;;;;4925046;29;20186;-84
2021/12/29 07:05:12;;;;;;;6.03;4.25;;;18.90;44.30;;;;;;4924972;29;20202;-84
2021/12/29 07:07:46;;;;;;;5.28;4.05;;;18.90;44.20;;;;;;4927284;29;20542;-85
2021/12/29 07:10:14;;;;;;;5.88;3.95;;;18.90;44.20;;;;;;4919802;29;20182;-85
2021/12/29 07:12:44;;;;;;;7.32;4.40;;;18.90;44.30;;;;;;4921854;29;20182;-85
2021/12/29 07:15:12;;;;;;;8.48;4.07;;;18.90;44.40;;;;;;4938119;29;20186;-85
2021/12/29 07:17:39;;;;;;;6.22;4.25;;;18.90;44.20;;;;;;4938011;29;20193;-85
2021/12/29 07:20:05;;;;;;;5.47;4.13;;;18.90;44.40;;;;;;4947080;29;20253;-85
2021/12/29 07:22:38;;;;;;;5.85;3.92;;;18.90;44.20;;;;;;4959507;29;20182;-84
2021/12/29 07:25:07;;;;;;;6.45;4.40;;;18.90;44.20;;;;;;4942021;29;20189;-84
2021/12/29 07:27:33;;;;;;;5.72;4.18;;;18.90;44.20;;;;;;4958334;28;20198;-84
2021/12/29 07:29:58;;;;;;;6.07;4.07;;;18.90;44.20;;;;;;4958493;29;20186;-85
2021/12/29 07:32:26;;;;;;;6.22;4.55;;;19.00;44.20;;;;;;4943393;29;20293;-85
2021/12/29 07:34:57;;;;;;;6.82;4.45;;;18.90;44.10;;;;;;4930517;29;20189;-86
2021/12/29 07:37:29;;;;;;;5.97;4.07;;;19.00;44.20;;;;;;4961420;28;20162;-84
2021/12/29 07:40:05;;;;;;;8.35;4.03;;;19.00;44.10;;;;;;4938816;29;20187;-84
2021/12/29 07:42:38;;;;;;;6.35;4.32;;;19.00;44.10;;;;;;4947675;28;20162;-84
2021/12/29 07:45:09;;;;;;;5.78;4.10;;;18.90;44.10;;;;;;4998979;28;20177;-84
2021/12/29 07:47:48;;;;;;;5.90;4.00;;;19.00;44.00;;;;;;5011578;28;20248;-86
2021/12/29 07:50:20;;;;;;;5.38;4.10;;;19.00;44.00;;;;;;5028457;28;20655;-84
2021/12/29 07:52:49;;;;;;;5.38;4.40;;;19.00;44.00;;;;;;5014901;28;20166;-84
2021/12/29 07:55:21;;;;;;;6.40;4.47;;;19.00;43.90;;;;;;4999389;28;20218;-84
2021/12/29 07:57:53;;;;;;;5.72;4.32;;;19.00;44.00;;;;;;5000607;28;20536;-84
2021/12/29 08:00:27;;;;;;;6.97;4.20;;;19.00;43.90;;;;;;5021637;28;20612;-84
2021/12/29 08:03:05;;;;;;;7.05;4.25;;;19.10;44.50;;;;;;5038720;28;20170;-85
2021/12/29 08:05:45;;;;;;;6.22;4.28;;;19.00;43.90;;;;;;5024008;28;20174;-85
2021/12/29 08:08:11;;;;;;;5.80;4.40;;;19.00;43.80;;;;;;5055347;28;20218;-84
2021/12/29 08:10:57;;;;;;;6.95;4.30;;;19.00;43.90;;;;;;5034074;28;20209;-84
2021/12/29 08:13:38;;;;;;;5.13;3.97;;;19.10;43.90;;;;;;5062795;28;20197;-84
2021/12/29 08:16:05;;;;;;;6.80;4.78;;;19.00;43.90;;;;;;5073442;28;20172;-85
2021/12/29 08:18:31;;;;;;;5.68;4.32;;;19.00;43.80;;;;;;5066760;28;20259;-84
2021/12/29 08:21:20;;;;;;;6.97;4.63;;;19.00;43.80;;;;;;5066641;28;20239;-85
2021/12/29 08:23:52;;;;;;;6.70;4.28;;;19.10;43.90;;;;;;5079537;28;20184;-84
2021/12/29 08:26:22;;;;;;;5.75;4.18;;;19.10;43.90;;;;;;5083398;28;20180;-84
2021/12/29 08:28:51;;;;;;;5.88;4.30;;;19.10;43.80;;;;;;5098945;28;20168;-85
2021/12/29 08:31:19;;;;;;;6.22;4.38;;;19.10;43.90;;;;;;5043408;28;20201;-86
2021/12/29 08:33:49;;;;;;;6.18;4.47;;;19.10;43.90;;;;;;5027612;28;20285;-86
2021/12/29 08:36:16;;;;;;;6.07;4.20;;;19.10;43.90;;;;;;5048164;28;20703;-86
2021/12/29 08:38:54;;;;;;;6.30;4.38;;;19.10;43.90;;;;;;5046469;28;20157;-86
2021/12/29 08:41:38;;;;;;;6.30;4.15;;;19.10;43.60;;;;;;5041553;28;20178;-85
2021/12/29 08:44:16;;;;;;;4.78;3.80;;;19.10;43.70;;;;;;5026542;28;20224;-85
2021/12/29 08:46:51;;;;;;;5.82;4.28;;;19.10;43.70;;;;;;4985130;28;20191;-86
2021/12/29 08:49:22;;;;;;;6.63;4.38;;;19.10;43.70;;;;;;4992241;28;20222;-86
2021/12/29 08:51:48;;;;;;;5.43;4.40;;;19.10;43.70;;;;;;5019183;28;20219;-86
2021/12/29 08:54:20;;;;;;;7.15;4.50;;;19.10;43.70;;;;;;4987884;28;20182;-86
2021/12/29 08:57:07;;;;;;;6.03;4.65;;;19.10;43.60;;;;;;5005161;28;20214;-85
2021/12/29 08:59:53;;;;;;;;;;;;;;;;;;;;;
2021/12/29 09:02:20;;;;;;;5.75;4.20;;;19.10;43.50;;;;;;4974112;28;20298;-85
2021/12/29 09:04:49;;;;;;;5.68;4.38;;;19.10;43.50;;;;;;5024790;28;20182;-86
2021/12/29 09:07:24;;;;;;;6.75;4.35;;;19.20;43.60;;;;;;5023980;28;20566;-83
2021/12/29 09:09:58;;;;;;;5.57;4.28;;;19.20;43.60;;;;;;5019981;28;20183;-84
2021/12/29 09:12:28;;;;;;;5.47;4.20;;;19.20;43.70;;;;;;5013787;28;20555;-84
2021/12/29 09:14:57;;;;;;;6.13;4.28;;;19.20;43.50;;;;;;5023198;28;20277;-84
2021/12/29 09:18:01;;;;;;;4.65;3.75;;;19.30;43.50;;;;;;5040081;28;20193;-84
2021/12/29 09:20:45;;;;;;;6.68;4.63;;;19.20;43.60;;;;;;5112629;28;20248;-84
2021/12/29 09:23:11;;;;;;;5.65;4.30;;;19.20;43.40;;;;;;5055469;28;20171;-83
2021/12/29 09:25:47;;;;;;;5.85;4.30;;;19.20;43.40;;;;;;5084507;28;20184;-84
2021/12/29 09:28:28;;;;;;;;;;;;;;;;;;;;;
2021/12/29 09:31:08;;;;;;;8.32;4.13;;;19.20;43.50;;;;;;5050199;28;20284;-85
2021/12/29 09:34:07;;;;;;;5.78;4.35;;;19.20;43.40;;;;;;5050680;28;20293;-86
2021/12/29 09:37:11;;;;;;;5.43;4.22;;;19.30;43.40;;;;;;5011611;28;20613;-86
2021/12/29 09:39:39;;;;;;;6.05;4.30;;;19.30;43.40;;;;;;5009397;28;20179;-86
2021/12/29 09:42:20;;;;;;;5.47;4.10;;;19.30;43.40;;;;;;5024327;28;20187;-86
2021/12/29 09:44:55;;;;;;;7.40;4.63;;;19.30;43.30;;;;;;5024067;28;20238;-86
2021/12/29 09:47:39;;;;;;;5.50;4.30;;;19.30;43.40;;;;;;5028673;28;20221;-86
2021/12/29 09:50:19;;;;;;;8.88;5.00;;;19.30;43.50;;;;;;5057862;28;20254;-85
2021/12/29 09:53:11;;;;;;;7.00;4.60;;;19.30;43.50;;;;;;5046593;28;20257;-85
2021/12/29 09:55:46;;;;;;;5.97;4.40;;;19.30;43.50;;;;;;5047053;28;20159;-85
2021/12/29 09:58:23;;;;;;;6.18;4.80;;;19.40;43.60;;;;;;5042548;28;20210;-85
2021/12/29 10:01:08;;;;;;;5.78;4.35;;;19.20;43.60;;;;;;5008583;28;20188;-85
2021/12/29 10:03:47;;;;;;;6.20;4.43;;;19.30;43.80;;;;;;4976006;28;20187;-85
2021/12/29 10:06:12;;;;;;;6.15;4.50;;;19.30;43.60;;;;;;4991123;28;20194;-85
2021/12/29 10:09:18;;;;;;;6.35;4.40;;;19.30;43.50;;;;;;4969039;28;20184;-85
2021/12/29 10:12:55;;;;;;;6.47;4.25;;;19.30;43.60;;;;;;4987242;28;20204;-85
2021/12/29 10:17:49;;;;;;;5.10;4.30;;;19.40;43.60;;;;;;4879253;29;20183;-85
2021/12/29 10:20:20;;;;;;;5.30;4.22;;;19.40;43.50;;;;;;4857916;29;20208;-86
2021/12/29 10:23:06;;;;;;;5.30;4.32;;;19.40;43.40;;;;;;4875024;29;20292;-85
2021/12/29 10:28:56;;;;;;;6.40;4.40;;;19.40;43.40;;;;;;4874409;29;20184;-85
2021/12/29 10:31:59;;;;;;;5.60;4.40;;;19.40;43.50;;;;;;4909929;29;20219;-86
2021/12/29 10:34:29;;;;;;;6.05;4.57;;;19.40;43.50;;;;;;4867807;29;20184;-85
2021/12/29 10:37:25;;;;;;;6.15;4.45;;;19.40;43.80;;;;;;4885422;29;20185;-85
2021/12/29 10:40:16;;;;;;;7.05;4.90;;;19.40;43.50;;;;;;4802165;29;20702;-86
2021/12/29 10:42:58;;;;;;;6.22;4.20;;;19.40;44.20;;;;;;4818173;29;20228;-86
2021/12/29 10:45:53;;;;;;;6.63;4.28;;;19.40;43.70;;;;;;4766649;30;20189;-85
2021/12/29 10:48:33;;;;;;;7.85;4.32;;;19.40;43.80;;;;;;4763486;30;20311;-85
2021/12/29 10:51:09;;;;;;;6.55;4.70;;;19.40;43.80;;;;;;4782297;30;20260;-86
2021/12/29 10:54:08;;;;;;;7.10;4.72;;;19.30;44.10;;;;;;4766922;30;20187;-85
2021/12/29 10:56:51;;;;;;;6.35;4.80;;;19.30;44.20;;;;;;4796862;29;20212;-85
2021/12/29 10:59:37;;;;;;;6.85;4.38;;;19.30;44.00;;;;;;4799232;30;20258;-86
2021/12/29 11:02:06;;;;;;;6.65;4.50;;;19.30;43.90;;;;;;4795829;29;20265;-84
2021/12/29 11:05:05;;;;;;;;;;;;;;;;;;;;;
2021/12/29 11:07:44;;;;;;;8.57;4.40;;;19.40;43.90;;;;;;4773389;30;20264;-86
2021/12/29 11:10:22;;;;;;;7.80;5.10;;;19.40;43.90;;;;;;4776711;30;20196;-85
2021/12/29 11:12:54;;;;;;;7.47;4.88;;;19.40;44.10;;;;;;4775360;30;20197;-86
2021/12/29 11:15:42;;;;;;;;;;;;;;;;;;;;;
2021/12/29 11:18:18;;;;;;;6.63;4.70;;;19.40;44.00;;;;;;4786270;29;20263;-86
2021/12/29 11:20:59;;;;;;;9.60;4.68;;;19.40;44.10;;;;;;4832307;29;20190;-86
2021/12/29 11:23:45;;;;;;;7.47;4.68;;;19.40;44.10;;;;;;4853824;29;20220;-86
2021/12/29 11:26:27;;;;;;;6.60;4.65;;;19.40;44.10;;;;;;4839873;29;20186;-85
2021/12/29 11:29:10;;;;;;;7.57;5.00;;;19.40;44.20;;;;;;4820958;29;20682;-86
2021/12/29 11:31:46;;;;;;;6.40;4.95;;;19.40;44.10;;;;;;4863112;29;20747;-84
2021/12/29 11:34:25;;;;;;;7.28;4.78;;;19.40;44.20;;;;;;4834806;29;20270;-86
2021/12/29 11:37:14;;;;;;;8.45;5.07;;;19.40;44.10;;;;;;4816693;29;20193;-84
2021/12/29 11:39:48;;;;;;;9.07;5.07;;;19.40;44.10;;;;;;4817414;29;20198;-85
2021/12/29 11:42:21;;;;;;;9.35;5.20;;;19.40;44.20;;;;;;4803654;29;20186;-86
2021/12/29 11:44:52;;;;;;;8.70;4.85;;;19.40;43.80;;;;;;4834890;29;20189;-84
2021/12/29 11:50:36;;;;;;;8.35;5.13;;;19.40;44.30;;;;;;4846965;29;20271;-86
2021/12/29 11:53:36;;;;;;;12.77;5.50;;;19.40;44.40;;;;;;4836670;29;20204;-86
2021/12/29 11:56:14;;;;;;;7.75;5.30;;;19.40;44.60;;;;;;4844382;29;20201;-86
2021/12/29 11:59:04;;;;;;;8.80;5.45;;;19.40;44.30;;;;;;4833382;29;20213;-87
2021/12/29 12:01:45;;;;;;;9.05;5.53;;;19.40;44.00;;;;;;4839975;29;20193;-85
2021/12/29 12:04:22;;;;;;;9.40;5.25;;;19.40;44.10;;;;;;4889872;29;20271;-85
2021/12/29 12:06:49;;;;;;;11.02;5.78;;;19.40;44.10;;;;;;4927119;29;20183;-85
2021/12/29 12:09:25;;;;;;;7.05;5.32;;;19.30;44.00;;;;;;4931642;29;20311;-84
2021/12/29 12:12:11;;;;;;;13.43;6.03;;;19.40;43.90;;;;;;4991756;28;20223;-84
2021/12/29 12:14:50;;;;;;;11.02;5.07;;;19.40;44.00;;;;;;4976581;28;20183;-84
2021/12/29 12:17:51;;;;;;;;;;;;;;;;;;;;;
2021/12/29 12:20:17;;;;;;;9.68;5.20;;;19.40;44.10;;;;;;4874782;29;20196;-85
2021/12/29 12:22:50;;;;;;;9.70;5.47;;;19.40;44.10;;;;;;4871024;29;20215;-85
2021/12/29 12:25:28;;;;;;;7.88;5.10;;;19.30;44.10;;;;;;4837945;29;20197;-84
2021/12/29 12:28:17;;;;;;;9.95;5.43;;;19.40;44.20;;;;;;4821830;29;20352;-85
2021/12/29 12:31:06;;;;;;;10.25;5.13;;;19.40;44.30;;;;;;4788076;29;20221;-86
2021/12/29 12:33:41;;;;;;;9.20;5.38;;;19.40;44.10;;;;;;4802139;29;20183;-84
2021/12/29 12:36:08;;;;;;;10.20;5.50;;;19.40;44.10;;;;;;4829395;29;20189;-85
2021/12/29 12:38:37;;;;;;;10.25;5.63;;;19.40;44.50;;;;;;4871770;29;20197;-85
2021/12/29 12:41:13;;;;;;;9.95;5.47;;;19.40;43.90;;;;;;4856174;29;20189;-84
2021/12/29 12:44:05;;;;;;;9.32;5.78;;;19.40;43.90;;;;;;4855154;29;20193;-84
2021/12/29 12:46:45;;;;;;;9.82;6.00;;;19.40;43.70;;;;;;4836414;29;20194;-84
2021/12/29 12:49:18;;;;;;;7.40;5.30;;;19.40;44.00;;;;;;4750220;30;20236;-84
2021/12/29 12:52:08;;;;;;;11.63;5.22;;;19.40;44.30;;;;;;4782970;30;20231;-86
2021/12/29 12:55:06;;;;;;;9.68;5.50;;;19.40;44.10;;;;;;4769132;30;20673;-84
2021/12/29 12:57:54;;;;;;;10.73;5.25;;;19.40;44.00;;;;;;4765348;30;20210;-84
2021/12/29 13:00:30;;;;;;;8.10;5.13;;;19.40;43.90;;;;;;4727382;30;20190;-85
2021/12/29 13:03:13;;;;;;;8.73;5.28;;;19.40;43.80;;;;;;4753690;30;20247;-84
2021/12/29 13:05:52;;;;;;;11.27;5.68;;;19.50;44.00;;;;;;4791728;30;20196;-84
2021/12/29 13:08:27;;;;;;;10.40;5.68;;;19.40;44.30;;;;;;4765127;30;20196;-84
2021/12/29 13:11:05;;;;;;;9.18;5.47;;;19.50;44.10;;;;;;4692859;30;20233;-84
2021/12/29 13:13:47;;;;;;;9.30;5.28;;;19.40;44.00;;;;;;4727701;30;20194;-84
2021/12/29 13:16:30;;;;;;;10.15;5.55;;;19.40;44.40;;;;;;4698668;30;20206;-84
2021/12/29 13:19:10;;;;;;;10.88;5.57;;;19.40;44.10;;;;;;4726908;30;20554;-84
2021/12/29 13:21:47;;;;;;;10.00;5.70;;;19.40;43.90;;;;;;4724822;30;20194;-84
2021/12/29 13:24:18;;;;;;;8.65;5.35;;;19.40;43.90;;;;;;4711953;30;20331;-84
2021/12/29 13:27:35;;;;;;;9.10;5.90;;;19.40;44.10;;;;;;4724540;30;20209;-84
2021/12/29 13:30:29;;;;;;;;;;;;;;;;;;;;;
2021/12/29 13:33:16;;;;;;;9.85;5.82;;;19.40;44.30;;;;;;4726671;30;20631;-84
2021/12/29 13:36:05;;;;;;;11.05;5.47;;;19.30;44.20;;;;;;4730228;30;20264;-84
2021/12/29 13:39:00;;;;;;;8.77;5.47;;;19.40;44.20;;;;;;4731346;30;20237;-84
2021/12/29 13:41:52;;;;;;;8.00;5.05;;;19.30;44.20;;;;;;4742925;30;20253;-84
2021/12/29 13:44:18;;;;;;;8.52;5.40;;;19.40;44.20;;;;;;4788576;30;20690;-85
2021/12/29 13:46:52;;;;;;;12.45;5.97;;;19.40;44.40;;;;;;4804391;29;20195;-84
2021/12/29 13:49:27;;;;;;;8.88;5.50;;;19.40;44.30;;;;;;4803379;29;20233;-84